sensor_id;sensor_type;location;lat;lon;timestamp;P1;durP1;ratioP1;P2;durP2;ratioP2
76576;SDS011;65441;44.748;37.600;2023-02-03T00:01:33;2.45;;;0.90;;
76576;SDS011;65441;44.748;37.600;2023-02-03T00:04:06;2.97;;;1.00;;
76576;SDS011;65441;44.748;37.600;2023-02-03T00:06:43;2.90;;;0.93;;
76576;SDS011;65441;44.748;37.600;2023-02-03T00:09:19;2.55;;;0.80;;
76576;SDS011;65441;44.748;37.600;2023-02-03T00:11:54;3.03;;;1.00;;
76576;SDS011;65441;44.748;37.600;2023-02-03T00:14:25;2.28;;;0.85;;
76576;SDS011;65441;44.748;37.600;2023-02-03T00:17:05;2.25;;;0.80;;
76576;SDS011;65441;44.748;37.600;2023-02-03T00:19:42;2.53;;;0.70;;
76576;SDS011;65441;44.748;37.600;2023-02-03T00:22:18;3.72;;;0.95;;
76576;SDS011;65441;44.748;37.600;2023-02-03T00:24:51;3.15;;;1.05;;
76576;SDS011;65441;44.748;37.600;2023-02-03T00:27:29;3.03;;;0.80;;
76576;SDS011;65441;44.748;37.600;2023-02-03T00:30:04;3.47;;;0.80;;
76576;SDS011;65441;44.748;37.600;2023-02-03T00:32:45;3.42;;;0.73;;
76576;SDS011;65441;44.748;37.600;2023-02-03T00:35:17;2.92;;;1.00;;
76576;SDS011;65441;44.748;37.600;2023-02-03T00:37:58;3.80;;;1.05;;
76576;SDS011;65441;44.748;37.600;2023-02-03T00:40:32;2.58;;;0.80;;
76576;SDS011;65441;44.748;37.600;2023-02-03T00:43:07;3.35;;;1.05;;
76576;SDS011;65441;44.748;37.600;2023-02-03T00:45:57;5.43;;;1.30;;
76576;SDS011;65441;44.748;37.600;2023-02-03T00:48:48;5.18;;;1.20;;
76576;SDS011;65441;44.748;37.600;2023-02-03T00:51:33;3.08;;;0.95;;
76576;SDS011;65441;44.748;37.600;2023-02-03T00:54:06;3.88;;;1.20;;
76576;SDS011;65441;44.748;37.600;2023-02-03T00:56:39;4.13;;;1.15;;
76576;SDS011;65441;44.748;37.600;2023-02-03T00:59:14;3.90;;;1.10;;
76576;SDS011;65441;44.748;37.600;2023-02-03T01:02:06;4.28;;;1.33;;
76576;SDS011;65441;44.748;37.600;2023-02-03T01:04:45;3.75;;;1.23;;
76576;SDS011;65441;44.748;37.600;2023-02-03T01:07:21;3.85;;;1.20;;
76576;SDS011;65441;44.748;37.600;2023-02-03T01:09:55;4.88;;;1.58;;
76576;SDS011;65441;44.748;37.600;2023-02-03T01:12:29;4.82;;;1.30;;
76576;SDS011;65441;44.748;37.600;2023-02-03T01:15:05;3.60;;;1.30;;
76576;SDS011;65441;44.748;37.600;2023-02-03T01:17:42;4.78;;;1.50;;
76576;SDS011;65441;44.748;37.600;2023-02-03T01:20:17;4.78;;;1.60;;
76576;SDS011;65441;44.748;37.600;2023-02-03T01:22:52;7.80;;;2.75;;
76576;SDS011;65441;44.748;37.600;2023-02-03T01:25:26;6.32;;;2.17;;
76576;SDS011;65441;44.748;37.600;2023-02-03T01:28:00;3.33;;;1.20;;
76576;SDS011;65441;44.748;37.600;2023-02-03T01:30:37;3.25;;;1.05;;
76576;SDS011;65441;44.748;37.600;2023-02-03T01:33:23;3.78;;;1.30;;
76576;SDS011;65441;44.748;37.600;2023-02-03T01:35:59;3.63;;;1.23;;
76576;SDS011;65441;44.748;37.600;2023-02-03T01:38:32;3.83;;;1.15;;
76576;SDS011;65441;44.748;37.600;2023-02-03T01:41:10;3.45;;;1.05;;
76576;SDS011;65441;44.748;37.600;2023-02-03T01:43:47;3.00;;;0.90;;
76576;SDS011;65441;44.748;37.600;2023-02-03T01:46:26;2.65;;;1.00;;
76576;SDS011;65441;44.748;37.600;2023-02-03T01:49:04;5.50;;;1.30;;
76576;SDS011;65441;44.748;37.600;2023-02-03T01:54:17;3.92;;;1.10;;
76576;SDS011;65441;44.748;37.600;2023-02-03T01:56:55;4.45;;;1.23;;
76576;SDS011;65441;44.748;37.600;2023-02-03T01:59:33;3.25;;;1.00;;
76576;SDS011;65441;44.748;37.600;2023-02-03T02:02:08;3.90;;;1.25;;
76576;SDS011;65441;44.748;37.600;2023-02-03T02:04:47;2.92;;;1.00;;
76576;SDS011;65441;44.748;37.600;2023-02-03T02:07:25;4.65;;;1.50;;
76576;SDS011;65441;44.748;37.600;2023-02-03T02:10:14;4.18;;;1.10;;
76576;SDS011;65441;44.748;37.600;2023-02-03T02:12:50;4.50;;;1.00;;
76576;SDS011;65441;44.748;37.600;2023-02-03T02:15:26;3.50;;;1.10;;
76576;SDS011;65441;44.748;37.600;2023-02-03T02:18:14;4.28;;;1.10;;
76576;SDS011;65441;44.748;37.600;2023-02-03T02:29:53;6.05;;;1.20;;
76576;SDS011;65441;44.748;37.600;2023-02-03T02:32:53;4.05;;;0.95;;
76576;SDS011;65441;44.748;37.600;2023-02-03T02:35:46;2.50;;;0.75;;
76576;SDS011;65441;44.748;37.600;2023-02-03T02:38:28;3.67;;;1.00;;
76576;SDS011;65441;44.748;37.600;2023-02-03T02:44:04;2.35;;;0.80;;
76576;SDS011;65441;44.748;37.600;2023-02-03T02:46:45;4.63;;;0.82;;
76576;SDS011;65441;44.748;37.600;2023-02-03T02:49:21;2.50;;;0.80;;
76576;SDS011;65441;44.748;37.600;2023-02-03T02:51:56;3.35;;;0.90;;
76576;SDS011;65441;44.748;37.600;2023-02-03T02:54:32;3.13;;;1.02;;
76576;SDS011;65441;44.748;37.600;2023-02-03T02:57:27;4.88;;;1.00;;
76576;SDS011;65441;44.748;37.600;2023-02-03T03:00:14;6.15;;;1.10;;
76576;SDS011;65441;44.748;37.600;2023-02-03T03:02:46;2.78;;;0.90;;
76576;SDS011;65441;44.748;37.600;2023-02-03T03:05:22;3.65;;;1.17;;
76576;SDS011;65441;44.748;37.600;2023-02-03T03:08:02;4.47;;;1.35;;
76576;SDS011;65441;44.748;37.600;2023-02-03T03:10:36;5.38;;;1.85;;
76576;SDS011;65441;44.748;37.600;2023-02-03T03:13:12;5.55;;;1.73;;
76576;SDS011;65441;44.748;37.600;2023-02-03T03:15:51;6.60;;;1.80;;
76576;SDS011;65441;44.748;37.600;2023-02-03T03:18:32;4.32;;;1.38;;
76576;SDS011;65441;44.748;37.600;2023-02-03T03:21:11;4.80;;;1.25;;
76576;SDS011;65441;44.748;37.600;2023-02-03T03:23:49;6.30;;;1.80;;
76576;SDS011;65441;44.748;37.600;2023-02-03T03:26:24;4.78;;;1.80;;
76576;SDS011;65441;44.748;37.600;2023-02-03T03:29:05;5.15;;;1.90;;
76576;SDS011;65441;44.748;37.600;2023-02-03T03:31:41;7.05;;;1.80;;
76576;SDS011;65441;44.748;37.600;2023-02-03T03:34:15;3.70;;;1.33;;
76576;SDS011;65441;44.748;37.600;2023-02-03T03:37:10;3.72;;;1.00;;
76576;SDS011;65441;44.748;37.600;2023-02-03T03:39:50;4.47;;;1.70;;
76576;SDS011;65441;44.748;37.600;2023-02-03T03:42:27;4.40;;;1.70;;
76576;SDS011;65441;44.748;37.600;2023-02-03T03:45:01;4.80;;;1.63;;
76576;SDS011;65441;44.748;37.600;2023-02-03T03:47:48;5.43;;;1.70;;
76576;SDS011;65441;44.748;37.600;2023-02-03T03:50:25;5.28;;;1.70;;
76576;SDS011;65441;44.748;37.600;2023-02-03T03:53:06;4.93;;;1.55;;
76576;SDS011;65441;44.748;37.600;2023-02-03T03:55:43;4.50;;;1.60;;
76576;SDS011;65441;44.748;37.600;2023-02-03T03:58:41;3.40;;;1.30;;
76576;SDS011;65441;44.748;37.600;2023-02-03T04:01:19;4.57;;;1.48;;
76576;SDS011;65441;44.748;37.600;2023-02-03T04:03:55;3.53;;;1.10;;
76576;SDS011;65441;44.748;37.600;2023-02-03T04:06:39;2.92;;;0.77;;
76576;SDS011;65441;44.748;37.600;2023-02-03T04:09:15;2.58;;;0.90;;
76576;SDS011;65441;44.748;37.600;2023-02-03T04:11:50;2.58;;;0.70;;
76576;SDS011;65441;44.748;37.600;2023-02-03T04:14:35;3.38;;;1.08;;
76576;SDS011;65441;44.748;37.600;2023-02-03T04:17:09;3.95;;;1.30;;
76576;SDS011;65441;44.748;37.600;2023-02-03T04:19:40;5.00;;;1.60;;
76576;SDS011;65441;44.748;37.600;2023-02-03T04:22:16;5.32;;;2.22;;
76576;SDS011;65441;44.748;37.600;2023-02-03T04:24:54;5.55;;;1.60;;
76576;SDS011;65441;44.748;37.600;2023-02-03T04:27:26;5.15;;;1.90;;
76576;SDS011;65441;44.748;37.600;2023-02-03T04:29:59;9.77;;;2.38;;
76576;SDS011;65441;44.748;37.600;2023-02-03T04:32:33;7.82;;;2.53;;
76576;SDS011;65441;44.748;37.600;2023-02-03T04:35:08;8.20;;;2.22;;
76576;SDS011;65441;44.748;37.600;2023-02-03T04:37:40;5.97;;;2.20;;
76576;SDS011;65441;44.748;37.600;2023-02-03T04:40:19;8.50;;;2.88;;
76576;SDS011;65441;44.748;37.600;2023-02-03T04:45:23;10.55;;;3.00;;
76576;SDS011;65441;44.748;37.600;2023-02-03T04:48:09;7.60;;;3.05;;
76576;SDS011;65441;44.748;37.600;2023-02-03T04:50:45;5.53;;;2.20;;
76576;SDS011;65441;44.748;37.600;2023-02-03T04:53:29;9.77;;;2.63;;
76576;SDS011;65441;44.748;37.600;2023-02-03T04:56:13;7.50;;;2.95;;
76576;SDS011;65441;44.748;37.600;2023-02-03T04:58:48;7.40;;;2.47;;
76576;SDS011;65441;44.748;37.600;2023-02-03T05:01:21;8.18;;;2.90;;
76576;SDS011;65441;44.748;37.600;2023-02-03T05:03:54;10.77;;;3.22;;
76576;SDS011;65441;44.748;37.600;2023-02-03T05:06:27;7.43;;;3.00;;
76576;SDS011;65441;44.748;37.600;2023-02-03T05:09:06;6.97;;;2.78;;
76576;SDS011;65441;44.748;37.600;2023-02-03T05:11:41;7.85;;;2.60;;
76576;SDS011;65441;44.748;37.600;2023-02-03T05:14:15;6.13;;;2.15;;
76576;SDS011;65441;44.748;37.600;2023-02-03T05:16:48;12.20;;;2.88;;
76576;SDS011;65441;44.748;37.600;2023-02-03T05:19:21;6.40;;;2.55;;
76576;SDS011;65441;44.748;37.600;2023-02-03T05:21:55;6.78;;;2.60;;
76576;SDS011;65441;44.748;37.600;2023-02-03T05:24:29;7.40;;;2.50;;
76576;SDS011;65441;44.748;37.600;2023-02-03T05:27:12;4.25;;;1.33;;
76576;SDS011;65441;44.748;37.600;2023-02-03T05:29:47;4.38;;;1.33;;
76576;SDS011;65441;44.748;37.600;2023-02-03T05:34:52;5.57;;;1.10;;
76576;SDS011;65441;44.748;37.600;2023-02-03T05:37:27;8.82;;;2.08;;
76576;SDS011;65441;44.748;37.600;2023-02-03T05:39:58;3.63;;;1.17;;
76576;SDS011;65441;44.748;37.600;2023-02-03T05:42:47;14.60;;;2.90;;
76576;SDS011;65441;44.748;37.600;2023-02-03T05:45:21;4.53;;;1.27;;
76576;SDS011;65441;44.748;37.600;2023-02-03T05:47:56;3.75;;;1.15;;
76576;SDS011;65441;44.748;37.600;2023-02-03T05:50:29;4.07;;;1.10;;
76576;SDS011;65441;44.748;37.600;2023-02-03T05:53:09;3.13;;;1.00;;
76576;SDS011;65441;44.748;37.600;2023-02-03T05:55:43;3.88;;;1.20;;
76576;SDS011;65441;44.748;37.600;2023-02-03T05:58:20;4.53;;;1.20;;
76576;SDS011;65441;44.748;37.600;2023-02-03T06:00:53;4.35;;;1.00;;
76576;SDS011;65441;44.748;37.600;2023-02-03T06:03:26;3.10;;;0.98;;
76576;SDS011;65441;44.748;37.600;2023-02-03T06:05:58;2.83;;;0.98;;
76576;SDS011;65441;44.748;37.600;2023-02-03T06:08:30;2.92;;;1.20;;
76576;SDS011;65441;44.748;37.600;2023-02-03T06:11:05;3.83;;;1.02;;
76576;SDS011;65441;44.748;37.600;2023-02-03T06:13:39;3.15;;;1.05;;
76576;SDS011;65441;44.748;37.600;2023-02-03T06:18:43;2.40;;;1.00;;
76576;SDS011;65441;44.748;37.600;2023-02-03T06:21:16;3.15;;;1.13;;
76576;SDS011;65441;44.748;37.600;2023-02-03T06:23:50;4.68;;;1.00;;
76576;SDS011;65441;44.748;37.600;2023-02-03T06:26:24;4.70;;;1.10;;
76576;SDS011;65441;44.748;37.600;2023-02-03T06:28:57;3.92;;;0.95;;
76576;SDS011;65441;44.748;37.600;2023-02-03T06:31:32;4.75;;;1.20;;
76576;SDS011;65441;44.748;37.600;2023-02-03T06:34:07;5.07;;;1.38;;
76576;SDS011;65441;44.748;37.600;2023-02-03T06:36:39;6.20;;;1.90;;
76576;SDS011;65441;44.748;37.600;2023-02-03T06:39:23;5.03;;;1.45;;
76576;SDS011;65441;44.748;37.600;2023-02-03T06:41:56;5.40;;;1.75;;
76576;SDS011;65441;44.748;37.600;2023-02-03T06:44:32;7.28;;;1.70;;
76576;SDS011;65441;44.748;37.600;2023-02-03T06:47:07;4.00;;;1.02;;
76576;SDS011;65441;44.748;37.600;2023-02-03T06:49:41;4.15;;;1.20;;
76576;SDS011;65441;44.748;37.600;2023-02-03T06:52:19;6.20;;;1.17;;
76576;SDS011;65441;44.748;37.600;2023-02-03T06:54:52;2.83;;;1.00;;
76576;SDS011;65441;44.748;37.600;2023-02-03T06:57:24;4.78;;;1.30;;
76576;SDS011;65441;44.748;37.600;2023-02-03T06:59:58;5.95;;;1.38;;
76576;SDS011;65441;44.748;37.600;2023-02-03T07:02:31;4.07;;;1.15;;
76576;SDS011;65441;44.748;37.600;2023-02-03T07:05:01;5.50;;;1.48;;
76576;SDS011;65441;44.748;37.600;2023-02-03T07:07:31;3.35;;;0.95;;
76576;SDS011;65441;44.748;37.600;2023-02-03T07:10:04;4.30;;;1.10;;
76576;SDS011;65441;44.748;37.600;2023-02-03T07:12:41;3.63;;;1.20;;
76576;SDS011;65441;44.748;37.600;2023-02-03T07:15:16;4.40;;;1.38;;
76576;SDS011;65441;44.748;37.600;2023-02-03T07:17:48;3.88;;;1.58;;
76576;SDS011;65441;44.748;37.600;2023-02-03T07:20:23;5.20;;;1.45;;
76576;SDS011;65441;44.748;37.600;2023-02-03T07:23:00;2.67;;;0.85;;
76576;SDS011;65441;44.748;37.600;2023-02-03T07:25:32;3.05;;;0.90;;
76576;SDS011;65441;44.748;37.600;2023-02-03T07:28:03;2.28;;;0.65;;
76576;SDS011;65441;44.748;37.600;2023-02-03T07:30:36;3.13;;;0.88;;
76576;SDS011;65441;44.748;37.600;2023-02-03T07:33:09;5.40;;;1.15;;
76576;SDS011;65441;44.748;37.600;2023-02-03T07:35:41;3.20;;;0.95;;
76576;SDS011;65441;44.748;37.600;2023-02-03T07:38:14;2.08;;;0.85;;
76576;SDS011;65441;44.748;37.600;2023-02-03T07:40:48;4.93;;;1.10;;
76576;SDS011;65441;44.748;37.600;2023-02-03T07:43:19;3.35;;;1.00;;
76576;SDS011;65441;44.748;37.600;2023-02-03T07:45:53;3.63;;;1.05;;
76576;SDS011;65441;44.748;37.600;2023-02-03T07:48:27;3.70;;;1.02;;
76576;SDS011;65441;44.748;37.600;2023-02-03T07:50:59;3.72;;;0.90;;
76576;SDS011;65441;44.748;37.600;2023-02-03T07:53:31;5.43;;;1.40;;
76576;SDS011;65441;44.748;37.600;2023-02-03T07:56:02;4.55;;;1.10;;
76576;SDS011;65441;44.748;37.600;2023-02-03T07:58:39;2.10;;;0.70;;
76576;SDS011;65441;44.748;37.600;2023-02-03T08:01:13;3.22;;;0.82;;
76576;SDS011;65441;44.748;37.600;2023-02-03T08:03:46;1.83;;;0.47;;
76576;SDS011;65441;44.748;37.600;2023-02-03T08:06:17;3.50;;;0.90;;
76576;SDS011;65441;44.748;37.600;2023-02-03T08:08:48;3.42;;;0.90;;
76576;SDS011;65441;44.748;37.600;2023-02-03T08:11:19;1.65;;;0.70;;
76576;SDS011;65441;44.748;37.600;2023-02-03T08:13:51;2.13;;;0.70;;
76576;SDS011;65441;44.748;37.600;2023-02-03T08:16:23;1.85;;;0.47;;
76576;SDS011;65441;44.748;37.600;2023-02-03T08:21:27;3.08;;;0.77;;
76576;SDS011;65441;44.748;37.600;2023-02-03T08:24:00;3.05;;;1.08;;
76576;SDS011;65441;44.748;37.600;2023-02-03T08:26:32;3.05;;;1.00;;
76576;SDS011;65441;44.748;37.600;2023-02-03T08:29:06;5.00;;;1.50;;
76576;SDS011;65441;44.748;37.600;2023-02-03T08:31:39;2.47;;;0.85;;
76576;SDS011;65441;44.748;37.600;2023-02-03T08:34:13;3.25;;;1.00;;
76576;SDS011;65441;44.748;37.600;2023-02-03T08:36:47;3.95;;;1.00;;
76576;SDS011;65441;44.748;37.600;2023-02-03T08:39:18;3.38;;;1.08;;
76576;SDS011;65441;44.748;37.600;2023-02-03T08:41:49;1.73;;;0.60;;
76576;SDS011;65441;44.748;37.600;2023-02-03T08:44:21;4.22;;;0.95;;
76576;SDS011;65441;44.748;37.600;2023-02-03T08:46:54;4.00;;;1.20;;
76576;SDS011;65441;44.748;37.600;2023-02-03T08:49:29;0.68;;;0.35;;
76576;SDS011;65441;44.748;37.600;2023-02-03T08:52:01;2.58;;;0.32;;
76576;SDS011;65441;44.748;37.600;2023-02-03T08:54:32;1.95;;;0.60;;
76576;SDS011;65441;44.748;37.600;2023-02-03T08:57:05;0.85;;;0.28;;
76576;SDS011;65441;44.748;37.600;2023-02-03T08:59:38;0.75;;;0.40;;
76576;SDS011;65441;44.748;37.600;2023-02-03T09:02:15;0.45;;;0.10;;
76576;SDS011;65441;44.748;37.600;2023-02-03T09:04:51;2.88;;;0.40;;
76576;SDS011;65441;44.748;37.600;2023-02-03T09:07:23;1.25;;;0.20;;
76576;SDS011;65441;44.748;37.600;2023-02-03T09:09:57;1.88;;;0.52;;
76576;SDS011;65441;44.748;37.600;2023-02-03T09:12:30;0.30;;;0.17;;
76576;SDS011;65441;44.748;37.600;2023-02-03T09:15:06;2.45;;;0.60;;
76576;SDS011;65441;44.748;37.600;2023-02-03T09:17:41;2.58;;;0.68;;
76576;SDS011;65441;44.748;37.600;2023-02-03T09:20:14;6.05;;;0.50;;
76576;SDS011;65441;44.748;37.600;2023-02-03T09:22:47;1.45;;;0.55;;
76576;SDS011;65441;44.748;37.600;2023-02-03T09:25:19;4.03;;;0.65;;
76576;SDS011;65441;44.748;37.600;2023-02-03T09:27:52;6.00;;;1.25;;
76576;SDS011;65441;44.748;37.600;2023-02-03T09:30:24;3.97;;;1.15;;
76576;SDS011;65441;44.748;37.600;2023-02-03T09:32:57;12.93;;;2.13;;
76576;SDS011;65441;44.748;37.600;2023-02-03T09:35:28;4.25;;;1.33;;
76576;SDS011;65441;44.748;37.600;2023-02-03T09:37:58;5.90;;;1.60;;
76576;SDS011;65441;44.748;37.600;2023-02-03T09:40:31;6.60;;;1.35;;
76576;SDS011;65441;44.748;37.600;2023-02-03T09:43:09;9.32;;;2.53;;
76576;SDS011;65441;44.748;37.600;2023-02-03T09:45:50;8.73;;;1.92;;
76576;SDS011;65441;44.748;37.600;2023-02-03T09:48:23;5.85;;;1.30;;
76576;SDS011;65441;44.748;37.600;2023-02-03T09:50:59;9.60;;;1.80;;
76576;SDS011;65441;44.748;37.600;2023-02-03T09:53:34;5.82;;;0.73;;
76576;SDS011;65441;44.748;37.600;2023-02-03T09:56:11;2.03;;;0.73;;
76576;SDS011;65441;44.748;37.600;2023-02-03T09:58:52;3.67;;;1.00;;
76576;SDS011;65441;44.748;37.600;2023-02-03T10:01:22;2.42;;;0.95;;
76576;SDS011;65441;44.748;37.600;2023-02-03T10:03:59;4.95;;;1.05;;
76576;SDS011;65441;44.748;37.600;2023-02-03T10:06:37;2.20;;;0.80;;
76576;SDS011;65441;44.748;37.600;2023-02-03T10:09:20;3.10;;;0.47;;
76576;SDS011;65441;44.748;37.600;2023-02-03T10:12:15;0.47;;;0.17;;
76576;SDS011;65441;44.748;37.600;2023-02-03T10:15:16;0.73;;;0.32;;
76576;SDS011;65441;44.748;37.600;2023-02-03T10:18:08;0.88;;;0.40;;
76576;SDS011;65441;44.748;37.600;2023-02-03T10:20:51;3.10;;;0.40;;
76576;SDS011;65441;44.748;37.600;2023-02-03T10:23:27;0.95;;;0.40;;
76576;SDS011;65441;44.748;37.600;2023-02-03T10:25:58;1.25;;;0.40;;
76576;SDS011;65441;44.748;37.600;2023-02-03T10:28:34;2.83;;;0.40;;
76576;SDS011;65441;44.748;37.600;2023-02-03T10:31:07;5.10;;;1.02;;
76576;SDS011;65441;44.748;37.600;2023-02-03T10:33:47;4.05;;;0.50;;
76576;SDS011;65441;44.748;37.600;2023-02-03T10:36:30;46.40;;;13.75;;
76576;SDS011;65441;44.748;37.600;2023-02-03T10:39:11;27.52;;;6.07;;
76576;SDS011;65441;44.748;37.600;2023-02-03T10:41:47;10.60;;;3.10;;
76576;SDS011;65441;44.748;37.600;2023-02-03T10:44:17;7.75;;;3.03;;
76576;SDS011;65441;44.748;37.600;2023-02-03T10:46:48;35.95;;;13.63;;
76576;SDS011;65441;44.748;37.600;2023-02-03T10:49:21;44.15;;;15.90;;
76576;SDS011;65441;44.748;37.600;2023-02-03T10:51:53;38.53;;;13.80;;
76576;SDS011;65441;44.748;37.600;2023-02-03T10:54:29;19.45;;;6.38;;
76576;SDS011;65441;44.748;37.600;2023-02-03T10:57:03;9.07;;;2.45;;
76576;SDS011;65441;44.748;37.600;2023-02-03T10:59:35;9.55;;;2.10;;
76576;SDS011;65441;44.748;37.600;2023-02-03T11:02:09;1.92;;;0.80;;
76576;SDS011;65441;44.748;37.600;2023-02-03T11:04:50;5.97;;;1.35;;
76576;SDS011;65441;44.748;37.600;2023-02-03T11:07:37;15.60;;;6.18;;
76576;SDS011;65441;44.748;37.600;2023-02-03T11:10:25;22.20;;;7.95;;
76576;SDS011;65441;44.748;37.600;2023-02-03T11:13:15;32.88;;;12.30;;
76576;SDS011;65441;44.748;37.600;2023-02-03T11:15:53;16.27;;;4.72;;
76576;SDS011;65441;44.748;37.600;2023-02-03T11:18:25;64.50;;;20.60;;
76576;SDS011;65441;44.748;37.600;2023-02-03T11:21:17;5.13;;;2.40;;
76576;SDS011;65441;44.748;37.600;2023-02-03T11:23:51;39.55;;;13.27;;
76576;SDS011;65441;44.748;37.600;2023-02-03T11:26:23;64.55;;;29.70;;
76576;SDS011;65441;44.748;37.600;2023-02-03T11:28:56;51.95;;;20.10;;
76576;SDS011;65441;44.748;37.600;2023-02-03T11:31:31;20.33;;;11.65;;
76576;SDS011;65441;44.748;37.600;2023-02-03T11:36:34;8.05;;;1.60;;
76576;SDS011;65441;44.748;37.600;2023-02-03T11:39:19;7.50;;;2.72;;
76576;SDS011;65441;44.748;37.600;2023-02-03T11:41:54;2.55;;;0.70;;
76576;SDS011;65441;44.748;37.600;2023-02-03T11:44:24;3.08;;;0.60;;
76576;SDS011;65441;44.748;37.600;2023-02-03T11:46:57;3.85;;;0.65;;
76576;SDS011;65441;44.748;37.600;2023-02-03T11:52:51;3.47;;;0.43;;
76576;SDS011;65441;44.748;37.600;2023-02-03T11:55:41;0.40;;;0.20;;
76576;SDS011;65441;44.748;37.600;2023-02-03T12:01:13;2.92;;;0.40;;
76576;SDS011;65441;44.748;37.600;2023-02-03T12:04:05;3.63;;;0.73;;
76576;SDS011;65441;44.748;37.600;2023-02-03T12:06:56;1.83;;;0.10;;
76576;SDS011;65441;44.748;37.600;2023-02-03T12:09:38;2.50;;;0.35;;
76576;SDS011;65441;44.748;37.600;2023-02-03T12:12:29;1.13;;;0.30;;
76576;SDS011;65441;44.748;37.600;2023-02-03T12:15:19;1.48;;;0.30;;
76576;SDS011;65441;44.748;37.600;2023-02-03T12:18:15;0.55;;;0.30;;
76576;SDS011;65441;44.748;37.600;2023-02-03T12:20:57;1.42;;;0.47;;
76576;SDS011;65441;44.748;37.600;2023-02-03T12:23:39;0.82;;;0.20;;
76576;SDS011;65441;44.748;37.600;2023-02-03T12:26:19;1.88;;;0.60;;
76576;SDS011;65441;44.748;37.600;2023-02-03T12:28:58;0.35;;;0.15;;
76576;SDS011;65441;44.748;37.600;2023-02-03T12:31:32;1.77;;;0.30;;
76576;SDS011;65441;44.748;37.600;2023-02-03T12:34:12;1.13;;;0.30;;
76576;SDS011;65441;44.748;37.600;2023-02-03T12:36:46;3.03;;;0.50;;
76576;SDS011;65441;44.748;37.600;2023-02-03T12:39:25;5.80;;;0.55;;
76576;SDS011;65441;44.748;37.600;2023-02-03T12:42:00;1.33;;;0.43;;
76576;SDS011;65441;44.748;37.600;2023-02-03T12:44:38;4.57;;;0.30;;
76576;SDS011;65441;44.748;37.600;2023-02-03T12:47:15;4.38;;;0.80;;
76576;SDS011;65441;44.748;37.600;2023-02-03T12:49:52;2.75;;;0.52;;
76576;SDS011;65441;44.748;37.600;2023-02-03T12:52:27;4.43;;;0.63;;
76576;SDS011;65441;44.748;37.600;2023-02-03T12:55:07;3.67;;;0.75;;
76576;SDS011;65441;44.748;37.600;2023-02-03T12:57:47;2.72;;;0.40;;
76576;SDS011;65441;44.748;37.600;2023-02-03T13:00:26;7.22;;;0.90;;
76576;SDS011;65441;44.748;37.600;2023-02-03T13:03:06;0.43;;;0.20;;
76576;SDS011;65441;44.748;37.600;2023-02-03T13:05:43;3.33;;;0.50;;
76576;SDS011;65441;44.748;37.600;2023-02-03T13:08:17;2.45;;;0.40;;
76576;SDS011;65441;44.748;37.600;2023-02-03T13:10:58;0.52;;;0.17;;
76576;SDS011;65441;44.748;37.600;2023-02-03T13:13:39;1.10;;;0.10;;
76576;SDS011;65441;44.748;37.600;2023-02-03T13:16:18;7.70;;;1.23;;
76576;SDS011;65441;44.748;37.600;2023-02-03T13:18:57;6.82;;;0.82;;
76576;SDS011;65441;44.748;37.600;2023-02-03T13:21:29;6.78;;;1.27;;
76576;SDS011;65441;44.748;37.600;2023-02-03T13:24:01;12.15;;;2.80;;
76576;SDS011;65441;44.748;37.600;2023-02-03T13:26:42;11.75;;;3.30;;
76576;SDS011;65441;44.748;37.600;2023-02-03T13:32:23;18.75;;;4.35;;
76576;SDS011;65441;44.748;37.600;2023-02-03T13:35:18;8.98;;;2.40;;
76576;SDS011;65441;44.748;37.600;2023-02-03T13:38:08;8.13;;;2.00;;
76576;SDS011;65441;44.748;37.600;2023-02-03T13:40:58;12.52;;;3.53;;
76576;SDS011;65441;44.748;37.600;2023-02-03T13:43:35;14.90;;;4.13;;
76576;SDS011;65441;44.748;37.600;2023-02-03T13:46:07;6.18;;;1.30;;
76576;SDS011;65441;44.748;37.600;2023-02-03T13:48:51;16.27;;;3.83;;
76576;SDS011;65441;44.748;37.600;2023-02-03T13:51:24;28.85;;;7.03;;
76576;SDS011;65441;44.748;37.600;2023-02-03T13:54:02;22.63;;;5.30;;
76576;SDS011;65441;44.748;37.600;2023-02-03T13:56:34;12.13;;;2.83;;
76576;SDS011;65441;44.748;37.600;2023-02-03T13:59:06;2.95;;;0.65;;
76576;SDS011;65441;44.748;37.600;2023-02-03T14:11:39;7.45;;;1.88;;
76576;SDS011;65441;44.748;37.600;2023-02-03T14:23:44;2.08;;;0.77;;
76576;SDS011;65441;44.748;37.600;2023-02-03T14:26:21;1.35;;;0.38;;
76576;SDS011;65441;44.748;37.600;2023-02-03T14:29:01;1.60;;;0.40;;
76576;SDS011;65441;44.748;37.600;2023-02-03T14:31:41;5.18;;;1.00;;
76576;SDS011;65441;44.748;37.600;2023-02-03T14:37:19;0.98;;;0.50;;
76576;SDS011;65441;44.748;37.600;2023-02-03T14:40:13;1.75;;;0.43;;
76576;SDS011;65441;44.748;37.600;2023-02-03T14:46:05;2.25;;;0.30;;
76576;SDS011;65441;44.748;37.600;2023-02-03T14:49:07;1.00;;;0.20;;
76576;SDS011;65441;44.748;37.600;2023-02-03T14:51:50;1.60;;;0.38;;
76576;SDS011;65441;44.748;37.600;2023-02-03T14:54:54;1.85;;;0.10;;
76576;SDS011;65441;44.748;37.600;2023-02-03T14:57:39;1.58;;;0.30;;
76576;SDS011;65441;44.748;37.600;2023-02-03T15:00:26;2.53;;;0.20;;
76576;SDS011;65441;44.748;37.600;2023-02-03T15:03:16;0.65;;;0.30;;
76576;SDS011;65441;44.748;37.600;2023-02-03T15:05:52;0.88;;;0.40;;
76576;SDS011;65441;44.748;37.600;2023-02-03T15:11:26;1.95;;;0.50;;
76576;SDS011;65441;44.748;37.600;2023-02-03T15:17:00;1.13;;;0.30;;
76576;SDS011;65441;44.748;37.600;2023-02-03T15:19:33;1.10;;;0.45;;
76576;SDS011;65441;44.748;37.600;2023-02-03T15:22:17;2.78;;;0.30;;
76576;SDS011;65441;44.748;37.600;2023-02-03T15:24:48;8.35;;;0.73;;
76576;SDS011;65441;44.748;37.600;2023-02-03T15:27:22;1.65;;;0.22;;
76576;SDS011;65441;44.748;37.600;2023-02-03T15:29:57;2.13;;;0.65;;
76576;SDS011;65441;44.748;37.600;2023-02-03T15:32:44;3.75;;;1.15;;
76576;SDS011;65441;44.748;37.600;2023-02-03T15:35:23;2.03;;;0.95;;
76576;SDS011;65441;44.748;37.600;2023-02-03T15:38:00;1.80;;;0.52;;
76576;SDS011;65441;44.748;37.600;2023-02-03T15:40:35;1.20;;;0.52;;
76576;SDS011;65441;44.748;37.600;2023-02-03T15:43:12;2.83;;;0.43;;
76576;SDS011;65441;44.748;37.600;2023-02-03T15:45:55;3.72;;;0.50;;
76576;SDS011;65441;44.748;37.600;2023-02-03T15:48:35;0.68;;;0.20;;
76576;SDS011;65441;44.748;37.600;2023-02-03T15:51:10;4.65;;;0.90;;
76576;SDS011;65441;44.748;37.600;2023-02-03T15:53:54;2.00;;;0.40;;
76576;SDS011;65441;44.748;37.600;2023-02-03T15:56:31;0.88;;;0.25;;
76576;SDS011;65441;44.748;37.600;2023-02-03T15:59:18;0.20;;;0.10;;
76576;SDS011;65441;44.748;37.600;2023-02-03T16:01:55;5.10;;;0.30;;
76576;SDS011;65441;44.748;37.600;2023-02-03T16:04:28;0.82;;;0.30;;
76576;SDS011;65441;44.748;37.600;2023-02-03T16:07:00;1.20;;;0.38;;
76576;SDS011;65441;44.748;37.600;2023-02-03T16:09:39;2.55;;;0.55;;
76576;SDS011;65441;44.748;37.600;2023-02-03T16:12:16;2.78;;;0.32;;
76576;SDS011;65441;44.748;37.600;2023-02-03T16:14:50;0.80;;;0.30;;
76576;SDS011;65441;44.748;37.600;2023-02-03T16:17:27;3.28;;;0.93;;
76576;SDS011;65441;44.748;37.600;2023-02-03T16:20:19;0.20;;;0.10;;
76576;SDS011;65441;44.748;37.600;2023-02-03T16:23:16;1.17;;;0.57;;
76576;SDS011;65441;44.748;37.600;2023-02-03T16:26:09;0.75;;;0.20;;
76576;SDS011;65441;44.748;37.600;2023-02-03T16:32:02;4.60;;;1.05;;
76576;SDS011;65441;44.748;37.600;2023-02-03T16:35:04;1.33;;;0.40;;
76576;SDS011;65441;44.748;37.600;2023-02-03T16:37:54;3.55;;;0.43;;
76576;SDS011;65441;44.748;37.600;2023-02-03T16:40:50;2.15;;;0.32;;
76576;SDS011;65441;44.748;37.600;2023-02-03T16:43:41;3.80;;;0.75;;
76576;SDS011;65441;44.748;37.600;2023-02-03T16:46:30;10.15;;;3.38;;